createdAt,value
2022-11-20T00:00:24.919Z,9.55
2022-11-20T00:02:52.059Z,9.45
2022-11-20T00:05:19.418Z,10.57
2022-11-20T00:07:46.602Z,8.88
2022-11-20T00:10:19.713Z,9.23
2022-11-20T00:12:46.867Z,11.02
2022-11-20T00:15:13.907Z,9.63
2022-11-20T00:17:40.954Z,10.60
2022-11-20T00:20:08.605Z,10.38
2022-11-20T00:22:35.713Z,10.90
2022-11-20T00:25:02.900Z,11.23
2022-11-20T00:27:30.384Z,11.85
2022-11-20T00:29:57.443Z,12.27
2022-11-20T00:32:24.498Z,11.50
2022-11-20T00:34:51.580Z,9.35
2022-11-20T00:37:46.810Z,10.82
2022-11-20T00:40:42.690Z,9.70
2022-11-20T00:43:18.190Z,11.77
2022-11-20T00:45:45.156Z,9.90
2022-11-20T00:48:12.223Z,11.30
2022-11-20T00:50:40.343Z,10.13
2022-11-20T00:53:07.428Z,10.40
2022-11-20T00:55:34.730Z,11.90
2022-11-20T00:58:04.525Z,12.88
2022-11-20T01:00:31.812Z,12.60
2022-11-20T01:02:58.901Z,12.40
2022-11-20T01:05:26.188Z,10.88
2022-11-20T01:07:53.147Z,11.00
2022-11-20T01:10:20.047Z,11.25
2022-11-20T01:13:06.948Z,11.82
2022-11-20T01:15:35.118Z,11.73
2022-11-20T01:18:02.057Z,11.82
2022-11-20T01:20:29.061Z,13.20
2022-11-20T01:22:56.049Z,10.55
2022-11-20T01:25:22.989Z,11.82
2022-11-20T01:27:50.146Z,10.80
2022-11-20T01:30:17.116Z,12.18
2022-11-20T01:32:44.065Z,14.63
2022-11-20T01:35:11.383Z,9.77
2022-11-20T01:37:38.310Z,11.55
2022-11-20T01:40:05.839Z,9.65
2022-11-20T01:42:51.323Z,10.52
2022-11-20T01:45:45.993Z,10.48
2022-11-20T01:48:13.190Z,9.35
2022-11-20T01:50:42.193Z,10.82
2022-11-20T01:53:13.419Z,9.55
2022-11-20T01:55:50.640Z,10.65
2022-11-20T01:58:27.731Z,9.27
2022-11-20T02:00:54.766Z,11.13
2022-11-20T02:03:21.960Z,11.10
2022-11-20T02:05:52.304Z,10.68
2022-11-20T02:08:21.224Z,10.93
2022-11-20T02:10:48.170Z,12.93
2022-11-20T02:13:34.171Z,10.50
2022-11-20T02:16:01.897Z,11.80
2022-11-20T02:18:29.831Z,11.00
2022-11-20T02:21:13.413Z,11.68
2022-11-20T02:24:13.633Z,12.13
2022-11-20T02:26:54.931Z,10.05
2022-11-20T02:29:29.156Z,10.85
2022-11-20T02:31:57.802Z,11.00
2022-11-20T02:34:24.856Z,11.52
2022-11-20T02:36:53.415Z,12.63
2022-11-20T02:39:22.148Z,11.52
2022-11-20T02:41:49.268Z,10.18
2022-11-20T02:44:16.292Z,11.35
2022-11-20T02:46:43.280Z,11.35
2022-11-20T02:49:10.225Z,9.77
2022-11-20T02:51:37.260Z,10.43
2022-11-20T02:54:04.649Z,12.13
2022-11-20T02:56:32.374Z,10.82
2022-11-20T02:58:59.415Z,8.15
2022-11-20T03:01:26.452Z,11.50
2022-11-20T03:03:55.564Z,10.45
2022-11-20T03:06:22.621Z,11.60
2022-11-20T03:08:50.095Z,11.07
2022-11-20T03:11:17.989Z,12.75
2022-11-20T03:13:44.966Z,9.07
2022-11-20T03:16:18.619Z,12.32
2022-11-20T03:18:46.882Z,12.25
2022-11-20T03:21:15.223Z,11.68
2022-11-20T03:23:42.654Z,10.85
2022-11-20T03:26:16.306Z,11.48
2022-11-20T03:28:56.346Z,10.70
2022-11-20T03:31:26.368Z,10.23
2022-11-20T03:33:53.690Z,10.57
2022-11-20T03:36:21.828Z,10.07
2022-11-20T03:38:49.759Z,10.50
2022-11-20T03:41:26.210Z,10.02
2022-11-20T03:43:55.987Z,11.90
2022-11-20T03:46:23.089Z,10.45
2022-11-20T03:48:52.078Z,10.23
2022-11-20T03:51:25.447Z,10.18
2022-11-20T03:53:54.346Z,9.10
2022-11-20T03:56:24.934Z,11.75
2022-11-20T03:58:52.119Z,10.20
2022-11-20T04:01:21.605Z,10.18
2022-11-20T04:03:49.545Z,10.65
2022-11-20T04:06:31.717Z,11.52
2022-11-20T04:08:59.562Z,10.40
2022-11-20T04:11:29.261Z,11.15
2022-11-20T04:13:59.189Z,11.50
2022-11-20T04:16:27.809Z,11.82
2022-11-20T04:18:57.059Z,12.77
2022-11-20T04:21:24.896Z,12.20
2022-11-20T04:23:53.906Z,8.82
2022-11-20T04:26:22.991Z,9.32
2022-11-20T04:28:50.676Z,10.20
2022-11-20T04:31:20.137Z,10.30
2022-11-20T04:33:48.816Z,10.30
2022-11-20T04:36:24.488Z,10.40
2022-11-20T04:38:56.830Z,10.77
2022-11-20T04:41:31.197Z,7.70
2022-11-20T04:44:02.884Z,14.00
2022-11-20T04:46:32.846Z,10.20
2022-11-20T04:49:00.535Z,10.35
2022-11-20T04:51:28.307Z,11.80
2022-11-20T04:53:55.438Z,13.13
2022-11-20T04:56:22.445Z,11.50
2022-11-20T04:58:49.808Z,12.52
2022-11-20T05:01:19.579Z,10.48
2022-11-20T05:03:47.134Z,14.05
2022-11-20T05:06:16.487Z,12.27
2022-11-20T05:08:44.177Z,10.57
2022-11-20T05:11:14.393Z,11.65
2022-11-20T05:13:41.500Z,9.65
2022-11-20T05:16:17.280Z,10.60
2022-11-20T05:18:44.422Z,9.90
2022-11-20T05:21:12.333Z,9.68
2022-11-20T05:23:40.095Z,14.35
2022-11-20T05:26:09.046Z,10.13
2022-11-20T05:28:36.161Z,11.38
2022-11-20T05:31:08.840Z,10.68
2022-11-20T05:33:36.881Z,10.88
2022-11-20T05:36:05.219Z,12.25
2022-11-20T05:38:32.533Z,12.15
2022-11-20T05:41:06.750Z,11.40
2022-11-20T05:43:38.356Z,11.27
2022-11-20T05:46:07.211Z,10.88
2022-11-20T05:48:37.669Z,11.95
2022-11-20T05:51:13.268Z,14.48
2022-11-20T05:53:47.876Z,11.50
2022-11-20T05:56:21.922Z,11.70
2022-11-20T05:58:50.290Z,11.93
2022-11-20T06:01:18.166Z,9.77
2022-11-20T06:03:48.679Z,12.00
2022-11-20T06:06:16.687Z,11.23
2022-11-20T06:08:44.995Z,10.82
2022-11-20T06:11:14.429Z,11.13
2022-11-20T06:13:48.166Z,10.80
2022-11-20T06:16:18.477Z,9.32
2022-11-20T06:18:46.502Z,11.60
2022-11-20T06:21:19.689Z,11.73
2022-11-20T06:23:47.429Z,13.40
2022-11-20T06:26:18.255Z,12.55
2022-11-20T06:28:48.749Z,11.80
2022-11-20T06:31:19.502Z,13.32
2022-11-20T06:33:47.163Z,15.00
2022-11-20T06:36:16.728Z,12.13
2022-11-20T06:38:46.518Z,10.15
2022-11-20T06:41:22.120Z,12.43
2022-11-20T06:43:49.823Z,12.70
2022-11-20T06:46:22.190Z,13.50
2022-11-20T06:48:50.843Z,12.80
2022-11-20T06:51:19.290Z,12.65
2022-11-20T06:53:46.654Z,12.38
2022-11-20T06:56:14.440Z,11.98
2022-11-20T06:58:41.487Z,11.75
2022-11-20T07:01:12.480Z,13.10
2022-11-20T07:03:40.376Z,11.32
2022-11-20T07:06:07.920Z,13.48
2022-11-20T07:08:35.667Z,12.52
2022-11-20T07:11:05.545Z,12.20
2022-11-20T07:13:33.692Z,11.95
2022-11-20T07:16:06.577Z,12.88
2022-11-20T07:18:34.070Z,14.47
2022-11-20T07:21:03.015Z,14.48
2022-11-20T07:23:30.254Z,12.38
2022-11-20T07:25:57.414Z,15.75
2022-11-20T07:28:24.680Z,11.95
2022-11-20T07:30:55.859Z,13.15
2022-11-20T07:33:22.969Z,13.18
2022-11-20T07:35:49.967Z,13.57
2022-11-20T07:38:19.682Z,14.80
2022-11-20T07:40:47.104Z,13.93
2022-11-20T07:43:14.269Z,14.10
2022-11-20T07:45:43.946Z,14.15
2022-11-20T07:48:10.972Z,15.07
2022-11-20T07:50:38.270Z,15.50
2022-11-20T07:53:05.980Z,14.27
2022-11-20T07:55:33.810Z,15.70
2022-11-20T07:58:00.984Z,14.40
2022-11-20T08:00:28.557Z,14.30
2022-11-20T08:02:55.919Z,15.82
2022-11-20T08:05:23.216Z,14.20
2022-11-20T08:07:50.275Z,14.27
2022-11-20T08:10:17.821Z,13.68
2022-11-20T08:13:09.437Z,14.10
2022-11-20T08:15:37.789Z,13.02
2022-11-20T08:20:54.371Z,12.30
2022-11-20T08:23:21.372Z,12.60
2022-11-20T08:25:52.044Z,12.68
2022-11-20T08:28:21.645Z,13.80
2022-11-20T08:30:51.260Z,13.90
2022-11-20T08:33:19.287Z,16.02
2022-11-20T08:35:49.692Z,13.73
2022-11-20T08:38:16.757Z,14.80
2022-11-20T08:41:04.046Z,15.52
2022-11-20T08:43:31.343Z,15.40
2022-11-20T08:45:58.783Z,13.93
2022-11-20T08:48:25.781Z,14.70
2022-11-20T08:50:52.786Z,15.98
2022-11-20T08:53:19.820Z,15.68
2022-11-20T08:55:46.828Z,15.38
2022-11-20T08:58:13.846Z,19.48
2022-11-20T09:00:40.832Z,15.18
2022-11-20T09:03:07.951Z,17.27
2022-11-20T09:05:35.086Z,13.95
2022-11-20T09:08:02.047Z,21.45
2022-11-20T09:10:29.257Z,17.17
2022-11-20T09:12:57.010Z,20.70
2022-11-20T09:15:25.406Z,17.90
2022-11-20T09:17:57.141Z,17.65
2022-11-20T09:20:24.144Z,18.73
2022-11-20T09:22:51.231Z,19.50
2022-11-20T09:25:18.855Z,17.58
2022-11-20T09:27:47.228Z,20.27
2022-11-20T09:30:16.040Z,18.35
2022-11-20T09:32:43.986Z,19.88
2022-11-20T09:35:11.878Z,13.77
2022-11-20T09:37:39.307Z,17.85
2022-11-20T09:40:07.592Z,16.70
2022-11-20T09:43:15.062Z,15.75
2022-11-20T09:46:11.107Z,19.38
2022-11-20T09:48:47.019Z,18.13
2022-11-20T09:51:16.949Z,16.92
2022-11-20T09:54:08.904Z,15.88
2022-11-20T09:56:40.661Z,16.58
2022-11-20T09:59:15.584Z,13.95
2022-11-20T10:01:44.366Z,15.82
2022-11-20T10:04:21.772Z,14.40
2022-11-20T10:07:10.392Z,18.33
2022-11-20T10:09:50.888Z,14.88
2022-11-20T10:12:36.282Z,16.30
2022-11-20T10:15:21.877Z,16.42
2022-11-20T10:18:10.578Z,13.43
2022-11-20T10:20:52.687Z,14.40
2022-11-20T10:23:49.340Z,15.50
2022-11-20T10:26:16.696Z,14.98
2022-11-20T10:28:59.271Z,19.23
2022-11-20T10:31:35.813Z,14.13
2022-11-20T10:34:23.231Z,15.00
2022-11-20T10:36:57.117Z,14.80
2022-11-20T10:39:35.142Z,15.23
2022-11-20T10:42:02.505Z,19.83
2022-11-20T10:44:53.896Z,14.45
2022-11-20T10:47:23.779Z,18.17
2022-11-20T10:49:54.599Z,18.48
2022-11-20T10:52:44.852Z,18.05
2022-11-20T10:55:34.181Z,14.82
2022-11-20T10:58:27.283Z,13.93
2022-11-20T11:01:24.593Z,14.20
2022-11-20T11:03:56.822Z,14.30
2022-11-20T11:06:38.140Z,13.23
2022-11-20T11:09:22.640Z,13.52
2022-11-20T11:11:49.819Z,13.93
2022-11-20T11:14:17.428Z,16.35
2022-11-20T11:16:55.775Z,13.20
2022-11-20T11:19:23.268Z,13.73
2022-11-20T11:21:59.677Z,12.80
2022-11-20T11:24:44.951Z,15.90
2022-11-20T11:27:17.726Z,15.15
2022-11-20T11:29:45.877Z,13.07
2022-11-20T11:32:14.715Z,12.15
2022-11-20T11:34:42.476Z,11.73
2022-11-20T11:37:18.727Z,15.07
2022-11-20T11:39:55.086Z,12.15
2022-11-20T11:42:32.126Z,12.45
2022-11-20T11:45:07.516Z,11.27
2022-11-20T11:47:42.552Z,10.80
2022-11-20T11:50:09.577Z,13.20
2022-11-20T11:53:15.914Z,11.52
2022-11-20T11:56:08.982Z,11.02
2022-11-20T11:58:47.870Z,14.80
2022-11-20T12:01:27.201Z,11.10
2022-11-20T12:04:22.000Z,11.82
2022-11-20T12:07:13.087Z,12.93
2022-11-20T12:09:54.949Z,12.27
2022-11-20T12:12:28.623Z,12.30
2022-11-20T12:14:58.143Z,13.60
2022-11-20T12:17:25.446Z,12.60
2022-11-20T12:19:52.849Z,12.88
2022-11-20T12:22:51.565Z,10.55
2022-11-20T12:25:25.459Z,12.75
2022-11-20T12:28:19.271Z,13.80
2022-11-20T12:31:02.833Z,12.18
2022-11-20T12:33:35.879Z,13.25
2022-11-20T12:36:16.459Z,14.45
2022-11-20T12:38:53.781Z,12.13
2022-11-20T12:42:17.996Z,13.88
2022-11-20T12:45:13.026Z,10.50
2022-11-20T12:48:17.553Z,12.82
2022-11-20T12:51:19.892Z,13.38
2022-11-20T12:54:09.096Z,13.93
2022-11-20T12:57:03.948Z,12.35
2022-11-20T12:59:42.698Z,13.43
2022-11-20T13:02:39.026Z,15.00
2022-11-20T13:05:25.426Z,15.05
2022-11-20T13:07:54.547Z,11.90
2022-11-20T13:10:30.577Z,12.48
2022-11-20T13:13:10.578Z,13.52
2022-11-20T13:15:51.198Z,13.52
2022-11-20T13:18:19.058Z,13.77
2022-11-20T13:20:46.880Z,13.63
2022-11-20T13:23:25.910Z,15.65
2022-11-20T13:26:07.918Z,10.95
2022-11-20T13:28:36.081Z,13.27
2022-11-20T13:31:03.192Z,12.65
2022-11-20T13:33:36.370Z,12.88
2022-11-20T13:36:07.218Z,12.80
2022-11-20T13:39:04.379Z,15.48
2022-11-20T13:41:39.155Z,13.63
2022-11-20T13:44:39.831Z,13.75
2022-11-20T13:47:21.400Z,13.98
2022-11-20T13:49:49.514Z,12.32
2022-11-20T13:52:34.672Z,11.32
2022-11-20T13:55:20.601Z,14.15
2022-11-20T13:58:07.358Z,12.13
2022-11-20T14:00:34.725Z,12.52
2022-11-20T14:03:07.932Z,13.45
2022-11-20T14:06:03.405Z,12.25
2022-11-20T14:08:38.163Z,13.88
2022-11-20T14:11:19.299Z,11.27
2022-11-20T14:13:59.874Z,13.63
2022-11-20T14:16:29.434Z,13.70
2022-11-20T14:18:58.248Z,13.48
2022-11-20T14:21:30.679Z,15.63
2022-11-20T14:24:07.936Z,13.75
2022-11-20T14:26:35.273Z,13.50
2022-11-20T14:29:02.704Z,12.40
2022-11-20T14:31:31.931Z,13.52
2022-11-20T14:33:59.030Z,14.63
2022-11-20T14:36:27.013Z,13.27
2022-11-20T14:38:55.230Z,12.57
2022-11-20T14:41:26.122Z,13.60
2022-11-20T14:44:25.380Z,12.48
2022-11-20T14:46:56.295Z,13.50
2022-11-20T14:49:23.817Z,14.85
2022-11-20T14:52:04.465Z,14.85
2022-11-20T14:54:31.910Z,14.10
2022-11-20T14:57:05.771Z,14.13
2022-11-20T14:59:42.389Z,11.70
2022-11-20T15:02:14.561Z,13.60
2022-11-20T15:05:03.947Z,12.85
2022-11-20T15:07:37.659Z,14.65
2022-11-20T15:10:07.699Z,13.43
2022-11-20T15:12:42.553Z,13.75
2022-11-20T15:15:16.179Z,15.45
2022-11-20T15:20:14.913Z,11.02
2022-11-20T15:22:43.004Z,15.10
2022-11-20T15:25:18.756Z,13.55
2022-11-20T15:27:56.368Z,14.35
2022-11-20T15:30:25.117Z,13.05
2022-11-20T15:32:52.484Z,14.65
2022-11-20T15:35:19.538Z,13.60
2022-11-20T15:37:46.645Z,14.35
2022-11-20T15:40:13.991Z,13.55
2022-11-20T15:43:01.020Z,11.13
2022-11-20T15:45:30.908Z,16.33
2022-11-20T15:47:58.042Z,13.55
2022-11-20T15:50:30.413Z,14.25
2022-11-20T15:52:57.925Z,14.55
2022-11-20T15:55:25.285Z,14.38
2022-11-20T15:57:52.341Z,13.52
2022-11-20T16:00:23.535Z,11.57
2022-11-20T16:02:51.098Z,13.93
2022-11-20T16:05:27.186Z,13.15
2022-11-20T16:07:54.504Z,13.75
2022-11-20T16:10:21.757Z,14.63
2022-11-20T16:13:07.673Z,12.15
2022-11-20T16:15:47.501Z,13.85
2022-11-20T16:18:17.896Z,14.00
2022-11-20T16:20:47.573Z,14.05
2022-11-20T16:23:14.891Z,12.98
2022-11-20T16:25:44.522Z,12.80
2022-11-20T16:28:17.421Z,14.63
2022-11-20T16:30:48.708Z,13.82
2022-11-20T16:33:18.342Z,12.02
2022-11-20T16:35:45.580Z,14.82
2022-11-20T16:38:13.167Z,15.73
2022-11-20T16:40:40.146Z,15.77
2022-11-20T16:43:12.440Z,13.50
2022-11-20T16:45:44.514Z,12.07
2022-11-20T16:48:18.288Z,12.60
2022-11-20T16:50:53.952Z,14.05
2022-11-20T16:53:22.700Z,13.18
2022-11-20T16:55:49.809Z,14.35
2022-11-20T16:58:17.062Z,12.95
2022-11-20T17:00:50.017Z,12.80
2022-11-20T17:03:19.491Z,12.85
2022-11-20T17:05:46.549Z,11.65
2022-11-20T17:08:13.802Z,13.45
2022-11-20T17:10:41.153Z,16.05
2022-11-20T17:13:08.633Z,13.30
2022-11-20T17:15:35.955Z,13.18
2022-11-20T17:18:03.817Z,12.95
2022-11-20T17:20:32.606Z,15.82
2022-11-20T17:22:59.832Z,13.57
2022-11-20T17:25:26.809Z,15.15
2022-11-20T17:27:55.521Z,13.80
2022-11-20T17:30:25.412Z,13.27
2022-11-20T17:32:52.699Z,14.02
2022-11-20T17:35:22.652Z,13.32
2022-11-20T17:37:49.624Z,13.60
2022-11-20T17:40:17.190Z,15.90
2022-11-20T17:42:44.428Z,16.55
2022-11-20T17:45:11.510Z,15.10
2022-11-20T17:47:38.531Z,14.90
2022-11-20T17:50:06.723Z,12.68
2022-11-20T17:52:33.979Z,14.95
2022-11-20T17:55:01.025Z,14.52
2022-11-20T17:57:46.564Z,14.82
2022-11-20T18:00:19.830Z,17.23
2022-11-20T18:02:46.984Z,14.35
2022-11-20T18:05:15.937Z,13.95
2022-11-20T18:07:43.128Z,14.60
2022-11-20T18:10:11.162Z,14.52
2022-11-20T18:12:38.506Z,13.52
2022-11-20T18:15:06.103Z,14.30
2022-11-20T18:17:33.539Z,17.17
2022-11-20T18:20:27.978Z,13.73
2022-11-20T18:22:47.864Z,15.70
2022-11-20T18:25:15.231Z,16.30
2022-11-20T18:27:42.275Z,14.43
2022-11-20T18:30:10.222Z,14.60
2022-11-20T18:32:38.269Z,13.23
2022-11-20T18:35:05.824Z,13.07
2022-11-20T18:37:32.944Z,12.82
2022-11-20T18:40:02.698Z,17.15
2022-11-20T18:42:48.782Z,13.52
2022-11-20T18:45:15.959Z,16.50
2022-11-20T18:47:44.205Z,13.70
2022-11-20T18:50:11.491Z,14.55
2022-11-20T18:52:42.018Z,13.52
2022-11-20T18:55:26.881Z,16.65
2022-11-20T18:57:55.252Z,17.17
2022-11-20T19:00:23.490Z,14.45
2022-11-20T19:02:53.739Z,17.40
2022-11-20T19:05:20.902Z,15.02
2022-11-20T19:07:47.944Z,14.55
2022-11-20T19:10:19.108Z,14.00
2022-11-20T19:12:47.305Z,15.07
2022-11-20T19:15:14.902Z,14.77
2022-11-20T19:17:42.078Z,17.60
2022-11-20T19:20:09.694Z,15.38
2022-11-20T19:22:39.148Z,16.30
2022-11-20T19:25:07.028Z,16.85
2022-11-20T19:27:34.139Z,16.27
2022-11-20T19:30:03.857Z,16.25
2022-11-20T19:32:32.814Z,17.60
2022-11-20T19:34:59.927Z,17.88
2022-11-20T19:37:27.108Z,19.35
2022-11-20T19:39:59.845Z,15.98
2022-11-20T19:42:27.234Z,16.95
2022-11-20T19:44:54.495Z,16.10
2022-11-20T19:47:22.908Z,13.13
2022-11-20T19:49:50.650Z,14.50
2022-11-20T19:52:18.252Z,15.75
2022-11-20T19:54:45.602Z,14.18
2022-11-20T19:57:13.196Z,16.67
2022-11-20T19:59:41.068Z,15.18
2022-11-20T20:02:11.553Z,16.95
2022-11-20T20:04:38.881Z,15.02
2022-11-20T20:07:06.522Z,13.93
2022-11-20T20:09:35.171Z,13.10
2022-11-20T20:12:02.190Z,11.27
2022-11-20T20:14:29.616Z,13.57
2022-11-20T20:16:56.717Z,14.63
2022-11-20T20:19:23.959Z,14.77
2022-11-20T20:21:51.470Z,15.43
2022-11-20T20:24:18.622Z,13.68
2022-11-20T20:26:45.628Z,12.27
2022-11-20T20:29:12.694Z,11.43
2022-11-20T20:31:40.140Z,14.75
2022-11-20T20:34:07.220Z,12.52
2022-11-20T20:36:34.515Z,12.07
2022-11-20T20:39:02.925Z,12.50
2022-11-20T20:41:30.845Z,12.70
2022-11-20T20:44:16.580Z,10.52
2022-11-20T20:46:44.630Z,13.93
2022-11-20T20:49:14.551Z,12.90
2022-11-20T20:51:41.640Z,11.95
2022-11-20T20:54:08.810Z,12.50
2022-11-20T20:56:36.026Z,10.70
2022-11-20T20:59:04.248Z,12.70
2022-11-20T21:01:31.488Z,11.30
2022-11-20T21:03:58.776Z,11.93
2022-11-20T21:06:26.979Z,11.93
2022-11-20T21:08:56.067Z,13.07
2022-11-20T21:11:23.359Z,12.95
2022-11-20T21:13:51.508Z,12.43
2022-11-20T21:16:20.855Z,12.50
2022-11-20T21:18:48.731Z,11.77
2022-11-20T21:21:35.204Z,12.32
2022-11-20T21:24:03.041Z,11.82
2022-11-20T21:26:30.395Z,11.65
2022-11-20T21:28:58.177Z,12.63
2022-11-20T21:31:26.878Z,13.73
2022-11-20T21:33:55.962Z,13.13
2022-11-20T21:36:25.712Z,12.65
2022-11-20T21:38:57.695Z,15.38
2022-11-20T21:41:27.063Z,14.95
2022-11-20T21:44:29.123Z,14.48
2022-11-20T21:46:45.441Z,13.82
2022-11-20T21:49:12.925Z,11.98
2022-11-20T21:51:40.050Z,13.77
2022-11-20T21:54:07.229Z,13.02
2022-11-20T21:56:34.463Z,11.88
2022-11-20T21:59:01.688Z,13.70
2022-11-20T22:01:30.956Z,14.82
2022-11-20T22:04:01.522Z,14.18
2022-11-20T22:06:33.997Z,12.32
2022-11-20T22:09:03.043Z,14.27
2022-11-20T22:11:30.506Z,12.93
2022-11-20T22:14:16.490Z,14.93
2022-11-20T22:16:43.631Z,13.32
2022-11-20T22:19:10.779Z,14.60
2022-11-20T22:21:40.521Z,16.17
2022-11-20T22:24:08.434Z,16.48
2022-11-20T22:26:40.237Z,13.05
2022-11-20T22:29:11.648Z,14.88
2022-11-20T22:31:38.649Z,15.68
2022-11-20T22:34:05.968Z,14.77
2022-11-20T22:36:37.008Z,16.92
2022-11-20T22:39:05.371Z,13.85
2022-11-20T22:41:32.880Z,16.98
2022-11-20T22:44:02.141Z,17.40
2022-11-20T22:46:32.425Z,14.77
2022-11-20T22:49:01.788Z,16.73
2022-11-20T22:51:34.700Z,14.90
2022-11-20T22:54:03.743Z,16.58
2022-11-20T22:56:31.725Z,14.27
2022-11-20T22:58:58.802Z,16.05
2022-11-20T23:01:28.278Z,15.23
2022-11-20T23:03:58.376Z,15.20
2022-11-20T23:06:26.228Z,13.20
2022-11-20T23:08:53.775Z,13.57
2022-11-20T23:11:22.390Z,12.80
2022-11-20T23:13:58.177Z,16.17
2022-11-20T23:16:27.557Z,14.32
2022-11-20T23:19:00.066Z,13.88
2022-11-20T23:21:27.425Z,12.85
2022-11-20T23:23:56.909Z,11.70
2022-11-20T23:26:27.146Z,18.23
2022-11-20T23:28:56.577Z,16.17
2022-11-20T23:31:24.633Z,15.52
2022-11-20T23:33:52.091Z,17.33
2022-11-20T23:36:19.305Z,12.68
2022-11-20T23:38:46.401Z,13.85
2022-11-20T23:41:14.398Z,14.05
2022-11-20T23:43:41.598Z,16.23
2022-11-20T23:46:13.742Z,16.05
2022-11-20T23:48:45.321Z,14.70
2022-11-20T23:51:13.348Z,15.50
2022-11-20T23:53:40.421Z,15.63
2022-11-20T23:56:08.267Z,13.00
2022-11-20T23:58:37.448Z,13.40
